Time;durP1;ratioP1;P1;durP2;ratioP2;P2;SDS_P1;SDS_P2;PMS_P1;PMS_P2;Temp;Humidity;BMP_temperature;BMP_pressure;BME280_temperature;BME280_humidity;BME280_pressure;Samples;Min_cycle;Max_cycle;Signal;HPM_P1;HPM_P2
2021/09/14 00:04:44;;;;;;;10.63;7.93;;;;;;;16.67;100.00;95934.72;1048633;28;20020;-69
2021/09/14 00:05:14;;;;;;;12.70;8.13;;;;;;;16.68;100.00;95939.00;1048811;28;20432;-68
2021/09/14 00:05:45;;;;;;;11.07;8.03;;;;;;;16.67;100.00;95929.31;1048824;28;20440;-69
2021/09/14 00:06:15;;;;;;;12.10;8.20;;;;;;;16.69;100.00;95935.22;1048824;28;20435;-68
2021/09/14 00:06:45;;;;;;;14.20;8.33;;;;;;;16.72;100.00;95933.81;1049118;28;20450;-68
2021/09/14 00:07:16;;;;;;;10.80;8.07;;;;;;;16.71;100.00;95929.50;1049159;28;20028;-68
2021/09/14 00:07:46;;;;;;;10.40;8.10;;;;;;;16.71;100.00;95926.81;1049087;28;20016;-68
2021/09/14 00:08:17;;;;;;;11.63;8.20;;;;;;;16.70;100.00;95927.94;1049161;28;20023;-68
2021/09/14 00:08:47;;;;;;;11.17;8.23;;;;;;;16.71;100.00;95926.81;1049090;28;20028;-68
2021/09/14 00:09:18;;;;;;;12.40;7.87;;;;;;;16.71;100.00;95924.13;1049088;28;20416;-68
2021/09/14 00:09:48;;;;;;;11.63;8.20;;;;;;;16.69;100.00;95924.44;1049124;28;20021;-68
2021/09/14 00:10:18;;;;;;;12.87;8.53;;;;;;;16.73;100.00;95935.41;1048755;28;20359;-68
2021/09/14 00:10:49;;;;;;;12.33;8.13;;;;;;;16.71;100.00;95926.81;1048797;28;20505;-68
2021/09/14 00:11:19;;;;;;;11.27;8.10;;;;;;;16.70;100.00;95928.72;1048847;28;20465;-68
2021/09/14 00:11:50;;;;;;;13.00;8.67;;;;;;;16.71;100.00;95930.34;1048767;28;20036;-68
2021/09/14 00:12:20;;;;;;;12.23;8.30;;;;;;;16.74;100.00;95920.84;1049082;28;20541;-68
2021/09/14 00:12:51;;;;;;;12.03;8.87;;;;;;;16.75;100.00;95930.53;1049038;28;20024;-68
2021/09/14 00:13:21;;;;;;;10.90;8.63;;;;;;;16.76;100.00;95921.31;1049144;28;20428;-68
2021/09/14 00:13:51;;;;;;;13.33;8.67;;;;;;;16.76;100.00;95929.41;1045245;28;20381;-68
2021/09/14 00:14:22;;;;;;;12.27;8.70;;;;;;;16.75;100.00;95925.91;1045052;28;20493;-68
2021/09/14 00:14:52;;;;;;;12.37;9.37;;;;;;;16.74;100.00;95926.25;1044913;28;20017;-69
2021/09/14 00:15:23;;;;;;;11.33;8.97;;;;;;;16.76;100.00;95934.81;1044978;28;20025;-69
2021/09/14 00:15:53;;;;;;;12.10;9.30;;;;;;;16.76;100.00;95929.41;1044564;28;20017;-68
2021/09/14 00:16:23;;;;;;;14.47;9.30;;;;;;;16.76;100.00;95926.72;1044700;28;20032;-68
2021/09/14 00:16:54;;;;;;;10.87;8.57;;;;;;;16.76;100.00;95926.72;1044301;28;20032;-69
2021/09/14 00:17:24;;;;;;;14.53;9.80;;;;;;;16.75;100.00;95934.00;1044599;28;20036;-68
2021/09/14 00:17:55;;;;;;;13.37;9.57;;;;;;;16.77;100.00;95928.28;1044914;28;20025;-68
2021/09/14 00:18:25;;;;;;;11.37;8.43;;;;;;;16.76;100.00;95924.00;1044831;28;20025;-68
2021/09/14 00:18:55;;;;;;;11.93;9.50;;;;;;;16.78;100.00;95927.19;1040397;28;20021;-68
2021/09/14 00:19:27;;;;;;;11.60;8.63;;;;;;;16.77;100.00;95925.59;1040606;28;20461;-68
2021/09/14 00:19:58;;;;;;;13.10;9.07;;;;;;;16.75;100.00;95923.22;1040512;28;20061;-68
2021/09/14 00:20:28;;;;;;;13.17;9.00;;;;;;;16.75;100.00;95925.91;1040673;28;20029;-68
2021/09/14 00:20:59;;;;;;;11.57;9.27;;;;;;;16.76;100.00;95932.09;1044930;28;20025;-68
2021/09/14 00:21:29;;;;;;;12.73;9.10;;;;;;;16.76;100.00;95924.81;1044847;28;20032;-68
2021/09/14 00:22:00;;;;;;;17.03;8.73;;;;;;;16.76;100.00;95926.72;1044884;28;20040;-68
2021/09/14 00:22:30;;;;;;;13.07;9.63;;;;;;;16.77;100.00;95923.69;1044911;28;20017;-68
2021/09/14 00:23:02;;;;;;;11.83;8.60;;;;;;;16.78;100.00;95917.19;1044787;28;20025;-68
2021/09/14 00:23:32;;;;;;;12.85;9.13;;;;;;;16.77;100.00;95917.50;1044405;28;20017;-68
2021/09/14 00:24:03;;;;;;;13.37;9.13;;;;;;;16.80;100.00;95925.00;1040365;28;20021;-67
2021/09/14 00:24:34;;;;;;;12.10;9.50;;;;;;;16.81;100.00;95919.28;1036341;28;20106;-70
2021/09/14 00:25:04;;;;;;;13.57;9.37;;;;;;;16.81;100.00;95924.66;1036490;28;20030;-67
2021/09/14 00:25:35;;;;;;;13.77;8.90;;;;;;;16.78;100.00;95925.28;1040408;28;20013;-67
2021/09/14 00:26:05;;;;;;;12.23;8.53;;;;;;;16.80;100.00;95925.78;1040576;28;20437;-67
2021/09/14 00:26:36;;;;;;;10.70;8.70;;;;;;;16.79;100.00;95926.91;1040791;28;20013;-68
2021/09/14 00:27:07;;;;;;;12.00;9.07;;;;;;;16.79;100.00;95926.09;1040772;28;20026;-69
2021/09/14 00:27:37;;;;;;;11.67;8.83;;;;;;;16.79;100.00;95918.78;1040788;28;20009;-69
2021/09/14 00:28:07;;;;;;;12.47;8.33;;;;;;;16.81;100.00;95921.97;1044522;28;20033;-67
2021/09/14 00:28:38;;;;;;;11.43;8.50;;;;;;;16.81;100.00;95926.56;1044343;28;20013;-67
2021/09/14 00:29:08;;;;;;;13.77;8.13;;;;;;;16.81;100.00;95918.47;1044554;28;20024;-68
2021/09/14 00:29:39;;;;;;;10.77;8.60;;;;;;;16.80;100.00;95928.47;1044575;28;20029;-68
2021/09/14 00:30:10;;;;;;;11.40;8.90;;;;;;;16.80;100.00;95927.69;1044626;28;20021;-68
2021/09/14 00:30:41;;;;;;;10.43;7.78;;;;;;;16.80;100.00;95923.09;1044580;28;20024;-68
2021/09/14 00:31:11;;;;;;;11.10;8.57;;;;;;;16.79;100.00;95926.09;1036476;28;20032;-68
2021/09/14 00:31:41;;;;;;;14.17;8.93;;;;;;;16.80;100.00;95922.28;1040439;28;20042;-68
2021/09/14 00:32:12;;;;;;;10.47;8.80;;;;;;;16.77;100.00;95926.38;1040474;28;20475;-68
2021/09/14 00:32:42;;;;;;;9.87;8.57;;;;;;;16.78;100.00;95929.88;1040536;28;20371;-68
2021/09/14 00:33:15;;;;;;;13.57;9.30;;;;;;;16.77;100.00;95921.00;1044949;28;20017;-68
2021/09/14 00:33:46;;;;;;;12.90;8.88;;;;;;;16.75;100.00;95922.44;1044540;28;20025;-68
2021/09/14 00:34:16;;;;;;;14.40;9.23;;;;;;;16.73;100.00;95916.53;1044817;28;20021;-68
2021/09/14 00:34:46;;;;;;;11.43;8.57;;;;;;;16.72;100.00;95923.03;1044947;28;20356;-68
2021/09/14 00:35:17;;;;;;;11.43;9.20;;;;;;;16.69;100.00;95929.84;1044894;28;20485;-69
2021/09/14 00:35:47;;;;;;;11.07;9.40;;;;;;;16.68;100.00;95924.72;1044913;28;20020;-69
2021/09/14 00:36:18;;;;;;;12.73;9.80;;;;;;;16.66;100.00;95922.34;1044959;28;20017;-68
2021/09/14 00:36:48;;;;;;;12.03;9.37;;;;;;;16.67;100.00;95925.84;1044935;28;20025;-69
2021/09/14 00:37:19;;;;;;;15.40;10.37;;;;;;;16.66;100.00;95919.66;1044586;28;20021;-68
2021/09/14 00:37:49;;;;;;;12.37;9.83;;;;;;;16.66;100.00;95916.16;1044454;28;20033;-68
2021/09/14 00:38:19;;;;;;;11.47;9.70;;;;;;;16.64;100.00;95921.88;1044499;28;20013;-68
2021/09/14 00:38:50;;;;;;;12.60;10.07;;;;;;;16.63;100.00;95922.94;1044560;28;20021;-68
2021/09/14 00:39:20;;;;;;;16.10;10.07;;;;;;;16.64;100.00;95928.06;1044435;28;20080;-68
2021/09/14 00:39:51;;;;;;;13.43;9.87;;;;;;;16.62;100.00;95922.16;1044545;28;20036;-68
2021/09/14 00:40:21;;;;;;;13.07;10.03;;;;;;;16.57;100.00;95925.00;1040351;28;20018;-68
2021/09/14 00:40:52;;;;;;;18.70;11.13;;;;;;;16.56;100.00;95917.22;1040509;28;20028;-68
2021/09/14 00:41:22;;;;;;;13.93;10.30;;;;;;;16.55;100.00;95919.13;1044546;28;20398;-68
2021/09/14 00:41:52;;;;;;;14.83;10.70;;;;;;;16.56;100.00;95919.91;1044543;28;20492;-69
2021/09/14 00:42:23;;;;;;;12.40;10.20;;;;;;;16.54;100.00;95914.84;1044866;28;20386;-69
2021/09/14 00:42:53;;;;;;;12.67;9.93;;;;;;;16.55;100.00;95913.72;1044884;28;20021;-69
2021/09/14 00:43:24;;;;;;;12.37;9.97;;;;;;;16.54;100.00;95917.53;1044890;28;20092;-69
2021/09/14 00:43:58;;;;;;;12.63;9.50;;;;;;;16.55;100.00;95912.94;1044532;28;20029;-69
2021/09/14 00:44:29;;;;;;;10.80;9.38;;;;;;;16.52;100.00;95910.84;1044841;28;20477;-69
2021/09/14 00:44:59;;;;;;;17.73;10.60;;;;;;;16.51;100.00;95910.03;1044896;28;20021;-69
2021/09/14 00:45:29;;;;;;;11.73;10.23;;;;;;;16.51;100.00;95910.03;1044824;28;20008;-69
2021/09/14 00:46:00;;;;;;;11.27;10.00;;;;;;;16.44;100.00;95911.59;1044818;28;20104;-69
2021/09/14 00:46:30;;;;;;;15.43;10.03;;;;;;;16.38;100.00;95906.34;1044850;28;20025;-69
2021/09/14 00:47:01;;;;;;;15.53;10.10;;;;;;;16.40;100.00;95913.31;1044870;28;20027;-69
2021/09/14 00:47:31;;;;;;;15.00;10.47;;;;;;;16.41;100.00;95914.91;1044469;28;20036;-69
2021/09/14 00:48:02;;;;;;;15.17;10.83;;;;;;;16.38;100.00;95909.03;1044478;28;20021;-69
2021/09/14 00:48:32;;;;;;;12.93;9.80;;;;;;;16.40;100.00;95911.41;1044541;28;20492;-69
2021/09/14 00:49:03;;;;;;;14.37;10.03;;;;;;;16.35;100.00;95915.03;1044500;28;20029;-69
2021/09/14 00:49:33;;;;;;;14.33;9.90;;;;;;;16.33;100.00;95909.16;1044813;28;20545;-69
2021/09/14 00:50:04;;;;;;;13.63;10.37;;;;;;;16.34;100.00;95909.97;1044823;28;20067;-69
2021/09/14 00:50:35;;;;;;;13.10;10.52;;;;;;;16.36;100.00;95899.66;1044772;28;20027;-69
2021/09/14 00:51:05;;;;;;;13.20;10.30;;;;;;;16.37;100.00;95912.03;1044845;28;20066;-69
2021/09/14 00:51:37;;;;;;;12.67;9.70;;;;;;;16.37;100.00;95915.50;1044824;28;20079;-69
2021/09/14 00:52:10;;;;;;;12.45;9.88;;;;;;;16.37;100.00;95903.94;1044479;28;20009;-69
2021/09/14 00:52:40;;;;;;;11.95;9.88;;;;;;;16.37;100.00;95909.31;1040352;28;20128;-69
2021/09/14 00:53:11;;;;;;;12.50;9.87;;;;;;;16.34;100.00;95908.06;1040428;28;20014;-69
2021/09/14 00:53:41;;;;;;;14.43;10.27;;;;;;;16.33;100.00;95901.06;1036307;28;20494;-69
2021/09/14 00:54:14;;;;;;;14.30;10.20;;;;;;;16.32;100.00;95904.84;1031951;28;20051;-69
2021/09/14 00:54:44;;;;;;;12.55;9.90;;;;;;;16.31;100.00;95900.56;1032551;28;20145;-69
2021/09/14 00:55:15;;;;;;;12.73;10.33;;;;;;;16.30;100.00;95903.59;1036631;28;20069;-69
2021/09/14 00:55:45;;;;;;;11.40;10.13;;;;;;;16.31;100.00;95899.78;1040404;28;20453;-69
2021/09/14 00:56:16;;;;;;;12.13;9.83;;;;;;;16.33;100.00;95900.28;1040425;28;20017;-69
2021/09/14 00:56:47;;;;;;;15.45;10.43;;;;;;;16.33;100.00;95900.28;1040322;28;20025;-69
2021/09/14 00:57:17;;;;;;;12.97;9.87;;;;;;;16.34;100.00;95908.06;1044537;28;20126;-69
2021/09/14 00:57:48;;;;;;;19.30;10.40;;;;;;;16.33;100.00;95901.06;1044542;28;20017;-69
2021/09/14 00:58:18;;;;;;;11.03;9.17;;;;;;;16.35;100.00;95906.16;1044490;28;20013;-69
2021/09/14 00:58:49;;;;;;;13.23;9.67;;;;;;;16.36;100.00;95897.75;1044293;28;20029;-69
2021/09/14 00:59:19;;;;;;;12.07;9.47;;;;;;;16.34;100.00;95899.97;1040678;28;20021;-69
2021/09/14 00:59:49;;;;;;;12.77;10.50;;;;;;;16.34;100.00;95899.97;1040686;28;20021;-69
2021/09/14 01:00:20;;;;;;;11.87;10.00;;;;;;;16.36;100.00;95907.75;1040661;28;20009;-69
2021/09/14 01:00:50;;;;;;;12.10;9.27;;;;;;;16.30;100.00;95908.97;1040208;28;20025;-69
2021/09/14 01:01:21;;;;;;;13.70;9.07;;;;;;;16.25;100.00;95903.72;1040398;28;20020;-69
2021/09/14 01:01:53;;;;;;;11.00;9.03;;;;;;;16.25;100.00;95898.31;1035918;28;20475;-69
2021/09/14 01:02:23;;;;;;;11.80;9.68;;;;;;;16.25;100.00;95906.41;1032353;28;20480;-69
2021/09/14 01:02:54;;;;;;;11.30;9.10;;;;;;;16.24;100.00;95897.53;1036204;28;20021;-69
2021/09/14 01:03:25;;;;;;;12.57;9.20;;;;;;;16.25;100.00;95898.31;1036687;28;20010;-69
2021/09/14 01:03:55;;;;;;;11.77;9.53;;;;;;;16.25;100.00;95896.41;1040469;28;20263;-69
2021/09/14 01:04:26;;;;;;;14.20;9.33;;;;;;;16.24;100.00;95902.13;1044771;28;20025;-69
2021/09/14 01:04:57;;;;;;;14.43;9.30;;;;;;;16.24;100.00;95900.22;1040296;28;20021;-69
2021/09/14 01:05:27;;;;;;;12.90;10.18;;;;;;;16.19;100.00;95902.25;1036186;28;20018;-69
2021/09/14 01:05:58;;;;;;;11.60;9.77;;;;;;;16.16;100.00;95900.16;1036270;28;20029;-69
2021/09/14 01:06:28;;;;;;;12.50;10.13;;;;;;;16.11;100.00;95899.19;1036635;28;20076;-69
2021/09/14 01:07:01;;;;;;;14.97;10.37;;;;;;;16.10;100.00;95894.09;1036277;28;20025;-69
2021/09/14 01:07:32;;;;;;;14.30;10.65;;;;;;;16.10;100.00;95899.50;1036041;28;20463;-69
2021/09/14 01:08:02;;;;;;;12.67;10.57;;;;;;;16.11;100.00;95899.19;1032095;28;20026;-69
2021/09/14 01:08:33;;;;;;;12.37;9.30;;;;;;;16.13;100.00;95900.78;1029204;28;20019;-69
2021/09/14 01:09:04;;;;;;;11.90;9.60;;;;;;;16.13;100.00;95893.50;1036504;28;20380;-69
2021/09/14 01:09:35;;;;;;;17.53;10.20;;;;;;;16.12;100.00;95894.56;1036217;28;20022;-69
2021/09/14 01:10:06;;;;;;;12.15;9.93;;;;;;;16.11;100.00;95895.69;1036804;28;20092;-69
2021/09/14 01:10:37;;;;;;;15.45;10.55;;;;;;;16.11;100.00;95893.00;1040398;28;20044;-69
2021/09/14 01:11:07;;;;;;;11.97;9.43;;;;;;;16.08;100.00;95897.09;1032409;28;20492;-69
2021/09/14 01:11:39;;;;;;;13.63;10.30;;;;;;;16.11;100.00;95895.69;1036235;28;20018;-69
2021/09/14 01:12:09;;;;;;;15.02;11.05;;;;;;;16.01;100.00;95899.41;1032584;28;20138;-69
2021/09/14 01:12:40;;;;;;;16.40;11.07;;;;;;;16.01;100.00;95895.94;1032686;28;20106;-69
2021/09/14 01:13:10;;;;;;;12.37;10.87;;;;;;;16.03;100.00;95896.44;1036225;28;20026;-69
2021/09/14 01:13:41;;;;;;;14.57;10.90;;;;;;;15.86;100.00;95884.41;1036388;28;20021;-69
2021/09/14 01:14:11;;;;;;;12.63;11.03;;;;;;;15.85;100.00;95892.81;1040444;28;20029;-69
2021/09/14 01:14:53;;;;;;;12.87;10.20;;;;;;;15.91;100.00;95893.47;1044487;28;20024;-69
2021/09/14 01:15:25;;;;;;;13.07;11.10;;;;;;;15.94;100.00;95892.88;1044720;28;20029;-69
2021/09/14 01:15:55;;;;;;;15.32;11.20;;;;;;;15.92;100.00;95893.19;1044779;28;20028;-69
2021/09/14 01:16:26;;;;;;;12.97;11.17;;;;;;;15.91;100.00;95894.28;1044764;28;20060;-69
2021/09/14 01:16:56;;;;;;;13.13;11.03;;;;;;;15.90;100.00;95895.38;1044787;28;20048;-69
2021/09/14 01:17:27;;;;;;;15.70;11.80;;;;;;;15.83;100.00;95901.22;1044414;28;20647;-69
2021/09/14 01:17:57;;;;;;;14.70;12.13;;;;;;;15.80;100.00;95892.94;1044178;28;20013;-69
2021/09/14 01:18:28;;;;;;;14.73;11.97;;;;;;;15.78;100.00;95887.84;1040376;28;20029;-69
2021/09/14 01:19:01;;;;;;;13.73;11.23;;;;;;;15.74;100.00;95897.63;1040426;28;20022;-69
2021/09/14 01:19:31;;;;;;;14.90;12.02;;;;;;;15.73;100.00;95887.97;1044406;28;20064;-69
2021/09/14 01:20:02;;;;;;;16.40;12.83;;;;;;;15.75;100.00;95895.75;1044492;28;20025;-69
2021/09/14 01:20:32;;;;;;;16.02;12.20;;;;;;;15.77;100.00;95893.56;1044535;28;20048;-69
2021/09/14 01:21:03;;;;;;;15.83;11.53;;;;;;;15.80;100.00;95890.22;1044407;28;20044;-69
2021/09/14 01:21:33;;;;;;;16.57;12.33;;;;;;;15.78;100.00;95890.53;1044381;28;20107;-69
2021/09/14 01:22:04;;;;;;;16.27;12.57;;;;;;;15.80;100.00;95892.94;1044397;28;20056;-69
2021/09/14 01:22:34;;;;;;;15.10;11.77;;;;;;;15.79;100.00;95888.66;1040392;28;20021;-69
2021/09/14 01:23:05;;;;;;;16.80;13.20;;;;;;;15.79;100.00;95889.44;1044345;28;20140;-69
2021/09/14 01:23:35;;;;;;;15.87;12.23;;;;;;;15.76;100.00;95894.63;1044382;28;20024;-69
2021/09/14 01:24:06;;;;;;;15.00;12.73;;;;;;;15.72;100.00;95894.47;1044347;28;20013;-69
2021/09/14 01:24:36;;;;;;;16.20;12.73;;;;;;;15.75;100.00;95895.75;1044718;28;20116;-69
2021/09/14 01:25:20;;;;;;;15.67;12.73;;;;;;;15.70;100.00;95891.25;1044697;28;20016;-69
2021/09/14 01:25:50;;;;;;;15.90;13.15;;;;;;;15.73;100.00;95895.25;1044607;28;20037;-69
2021/09/14 01:26:21;;;;;;;16.50;13.03;;;;;;;15.73;100.00;95895.25;1044647;28;20051;-69
2021/09/14 01:26:52;;;;;;;15.93;12.60;;;;;;;15.73;100.00;95901.44;1044318;28;20079;-69
2021/09/14 01:27:22;;;;;;;18.30;13.37;;;;;;;15.73;100.00;95901.44;1044438;28;20112;-68
2021/09/14 01:27:56;;;;;;;15.60;12.23;;;;;;;15.74;100.00;95897.63;1044106;28;20437;-69
2021/09/14 01:28:26;;;;;;;15.10;11.77;;;;;;;15.76;100.00;95898.13;1036616;28;20038;-69
2021/09/14 01:28:57;;;;;;;14.33;12.37;;;;;;;15.78;100.00;95900.53;1040333;28;20029;-69
2021/09/14 01:30:22;;;;;;;16.42;12.18;;;;;;;15.78;100.00;95895.13;1043408;28;20086;-69
2021/09/14 01:30:52;;;;;;;15.10;12.23;;;;;;;15.79;100.00;95894.03;1044649;28;20032;-69
2021/09/14 01:31:23;;;;;;;14.50;12.57;;;;;;;15.81;100.00;95898.00;1044707;28;20032;-69
2021/09/14 01:31:53;;;;;;;14.77;11.00;;;;;;;15.83;100.00;95895.03;1044602;28;20021;-69
2021/09/14 01:32:24;;;;;;;15.37;11.50;;;;;;;15.83;100.00;95898.50;1044617;28;20473;-69
2021/09/14 01:32:55;;;;;;;18.83;12.60;;;;;;;15.81;100.00;95892.59;1044606;28;20466;-69
2021/09/14 01:33:25;;;;;;;16.25;11.73;;;;;;;15.83;100.00;95897.72;1044677;28;20048;-69
2021/09/14 01:33:56;;;;;;;16.20;11.53;;;;;;;15.83;100.00;95893.13;1044339;28;20033;-69
2021/09/14 01:34:26;;;;;;;16.37;11.70;;;;;;;15.80;100.00;95899.09;1044329;28;20028;-69
2021/09/14 01:35:07;;;;;;;14.30;11.07;;;;;;;15.78;100.00;95898.63;1044360;28;20033;-69
2021/09/14 01:35:37;;;;;;;14.00;11.70;;;;;;;15.81;100.00;95894.50;1041671;28;20048;-69
2021/09/14 01:36:08;;;;;;;14.37;11.03;;;;;;;15.80;100.00;95898.31;1044318;28;20025;-69
2021/09/14 01:36:38;;;;;;;13.53;10.50;;;;;;;15.83;100.00;95892.31;1044337;28;20016;-69
2021/09/14 01:37:09;;;;;;;16.63;11.00;;;;;;;15.84;100.00;95888.53;1044376;28;20021;-69
2021/09/14 01:37:39;;;;;;;13.27;11.30;;;;;;;15.83;100.00;95895.03;1044020;28;20021;-69
2021/09/14 01:38:10;;;;;;;13.63;10.73;;;;;;;15.76;100.00;95891.94;1040108;28;20022;-69
2021/09/14 01:38:41;;;;;;;17.27;11.40;;;;;;;15.66;100.00;95889.47;1040170;28;20018;-68
2021/09/14 01:39:11;;;;;;;16.40;11.70;;;;;;;15.67;100.00;95891.09;1036203;28;20034;-68
2021/09/14 01:39:42;;;;;;;14.47;11.07;;;;;;;15.65;100.00;95883.28;1040406;28;20060;-68
2021/09/14 01:40:12;;;;;;;14.87;11.90;;;;;;;15.66;100.00;95889.47;1044308;28;20024;-68
2021/09/14 01:40:47;;;;;;;17.00;11.67;;;;;;;15.59;100.00;95885.28;1040276;28;20028;-68
2021/09/14 01:41:17;;;;;;;15.68;11.93;;;;;;;15.44;100.00;95893.69;1044330;28;20513;-68
2021/09/14 01:41:48;;;;;;;17.47;11.97;;;;;;;15.47;100.00;95890.41;1044341;28;20104;-68
2021/09/14 01:42:18;;;;;;;17.27;12.10;;;;;;;15.46;100.00;95888.81;1044340;28;20036;-68
2021/09/14 01:42:49;;;;;;;15.80;12.40;;;;;;;15.41;100.00;95891.63;1044294;28;20473;-68
2021/09/14 01:43:19;;;;;;;14.00;11.27;;;;;;;15.44;100.00;95893.69;1044345;28;20028;-68
2021/09/14 01:43:50;;;;;;;16.43;12.03;;;;;;;15.47;100.00;95892.31;1044311;28;20041;-68
2021/09/14 01:44:20;;;;;;;14.00;11.60;;;;;;;15.50;100.00;95892.47;1044417;28;20082;-68
2021/09/14 01:44:50;;;;;;;16.03;11.07;;;;;;;15.53;100.00;95891.09;1048376;28;20028;-68
2021/09/14 01:45:21;;;;;;;16.20;11.83;;;;;;;15.54;100.00;95892.69;1048492;28;20036;-68
2021/09/14 01:45:51;;;;;;;13.13;10.97;;;;;;;15.53;100.00;95891.88;1048401;28;20020;-68
2021/09/14 01:46:22;;;;;;;15.10;11.33;;;;;;;15.58;100.00;95899.84;1044626;28;20025;-68
2021/09/14 01:46:53;;;;;;;13.97;11.63;;;;;;;15.60;100.00;95894.16;1044571;28;20024;-68
2021/09/14 01:47:23;;;;;;;13.95;11.43;;;;;;;15.61;100.00;95893.06;1044344;28;20028;-68
2021/09/14 01:47:54;;;;;;;16.07;11.33;;;;;;;15.61;100.00;95895.78;1043909;28;20036;-68
2021/09/14 01:48:24;;;;;;;13.73;11.10;;;;;;;15.64;100.00;95891.69;1044366;28;20083;-68
2021/09/14 01:48:55;;;;;;;15.10;11.37;;;;;;;15.65;100.00;95895.97;1044231;28;20021;-67
2021/09/14 01:49:25;;;;;;;13.27;11.13;;;;;;;15.67;100.00;95891.88;1044327;28;20428;-69
2021/09/14 01:49:55;;;;;;;16.07;11.40;;;;;;;15.66;100.00;95892.16;1044344;28;20470;-68
2021/09/14 01:50:26;;;;;;;15.67;10.80;;;;;;;15.66;100.00;95887.59;1044642;28;20466;-68
2021/09/14 01:50:56;;;;;;;14.97;11.53;;;;;;;15.69;100.00;95891.56;1044567;28;20462;-69
2021/09/14 01:51:27;;;;;;;14.97;11.43;;;;;;;15.64;100.00;95892.47;1044242;28;20493;-68
2021/09/14 01:51:59;;;;;;;16.10;12.03;;;;;;;15.54;100.00;95888.09;1044330;28;20017;-68
2021/09/14 01:52:31;;;;;;;15.10;12.50;;;;;;;15.57;100.00;95895.56;1044358;28;20036;-68
2021/09/14 01:53:02;;;;;;;16.30;11.70;;;;;;;15.56;100.00;95894.00;1044290;28;20025;-68
2021/09/14 01:53:33;;;;;;;12.82;11.30;;;;;;;15.58;100.00;95897.16;1044683;28;20466;-69
2021/09/14 01:54:04;;;;;;;14.47;12.17;;;;;;;15.56;100.00;95894.00;1044578;28;20029;-69
2021/09/14 01:54:34;;;;;;;15.20;12.60;;;;;;;15.55;100.00;95888.88;1044660;28;20032;-69
2021/09/14 01:55:06;;;;;;;13.83;11.60;;;;;;;15.57;100.00;95895.56;1044421;28;20285;-69
2021/09/14 01:55:37;;;;;;;12.98;11.07;;;;;;;15.58;100.00;95897.16;1044605;28;20017;-69
2021/09/14 01:56:07;;;;;;;16.47;11.13;;;;;;;15.60;100.00;95894.16;1044638;28;20025;-69
2021/09/14 01:56:38;;;;;;;13.00;11.17;;;;;;;15.59;100.00;95881.78;1044639;28;20078;-69
2021/09/14 01:57:09;;;;;;;13.27;10.68;;;;;;;15.62;100.00;95893.88;1044537;28;20029;-69
2021/09/14 01:57:42;;;;;;;12.90;11.20;;;;;;;15.67;100.00;95893.78;1044617;28;20470;-69
2021/09/14 01:58:12;;;;;;;14.88;11.40;;;;;;;15.66;100.00;95900.25;1044060;28;20029;-69
2021/09/14 01:58:43;;;;;;;13.93;10.83;;;;;;;15.68;100.00;95898.88;1044325;28;20035;-69
2021/09/14 01:59:14;;;;;;;13.20;11.13;;;;;;;15.70;100.00;95890.47;1044232;28;20021;-69
2021/09/14 01:59:44;;;;;;;16.63;11.07;;;;;;;15.71;100.00;95900.94;1044284;28;20466;-69
2021/09/14 02:00:20;;;;;;;14.80;10.93;;;;;;;15.71;100.00;95897.44;1044560;28;20032;-69
2021/09/14 02:01:02;;;;;;;15.65;11.35;;;;;;;15.68;100.00;95893.47;1044581;28;20494;-68
2021/09/14 02:01:39;;;;;;;14.48;11.45;;;;;;;15.65;100.00;95901.34;1044608;28;20027;-69
2021/09/14 02:02:20;;;;;;;12.48;10.88;;;;;;;15.65;100.00;95901.34;1044542;28;20071;-68
2021/09/14 02:04:46;;;;;;;15.27;11.25;;;;;;;15.74;100.00;95894.94;1044610;28;20517;-69
2021/09/14 02:06:58;;;;;;;13.85;10.75;;;;;;;15.73;100.00;95896.06;1044280;28;20033;-68
2021/09/14 02:07:48;;;;;;;13.73;11.32;;;;;;;15.76;100.00;95894.63;1044508;28;20048;-68
2021/09/14 02:08:37;;;;;;;15.85;12.73;;;;;;;15.75;100.00;95898.44;1044347;28;20029;-69
2021/09/14 02:33:42;;;;;;;16.15;12.27;;;;;;;15.63;100.00;95900.84;1040112;28;20029;-69
2021/09/14 02:59:05;;;;;;;15.38;13.43;;;;;;;15.27;100.00;95888.16;1044423;28;20500;-68
2021/09/14 02:59:36;;;;;;;18.03;12.90;;;;;;;15.28;100.00;95879.78;1044399;28;20013;-67
2021/09/14 03:00:07;;;;;;;14.27;12.77;;;;;;;15.30;100.00;95879.47;1044035;28;20013;-68
2021/09/14 03:00:38;;;;;;;17.08;13.55;;;;;;;15.32;100.00;95888.06;1044091;28;20425;-68
2021/09/14 03:01:09;;;;;;;16.27;13.17;;;;;;;15.34;100.00;95883.94;1039885;28;20021;-68
2021/09/14 03:01:39;;;;;;;12.93;11.63;;;;;;;15.37;100.00;95887.16;1040261;28;20104;-68
2021/09/14 03:02:10;;;;;;;14.07;11.83;;;;;;;15.40;100.00;95884.63;1044049;28;20429;-68
2021/09/14 03:02:43;;;;;;;15.37;12.90;;;;;;;15.41;100.00;95894.31;1044181;28;20489;-68
2021/09/14 03:03:14;;;;;;;14.82;12.65;;;;;;;15.40;100.00;95890.00;1044358;28;20025;-68
2021/09/14 03:03:47;;;;;;;15.20;12.60;;;;;;;15.42;100.00;95885.13;1044351;28;20017;-68
2021/09/14 03:04:17;;;;;;;17.30;12.18;;;;;;;15.41;100.00;95883.56;1044351;28;20013;-68
2021/09/14 03:04:48;;;;;;;15.53;12.67;;;;;;;15.43;100.00;95888.63;1044414;28;20036;-68
2021/09/14 03:05:18;;;;;;;15.63;12.43;;;;;;;15.42;100.00;95895.91;1044162;28;20032;-68
2021/09/14 03:05:48;;;;;;;14.47;12.40;;;;;;;15.44;100.00;95893.69;1040243;28;20026;-68
2021/09/14 03:06:19;;;;;;;14.43;12.37;;;;;;;15.42;100.00;95890.53;1040258;28;20029;-68
2021/09/14 03:06:49;;;;;;;13.93;12.40;;;;;;;15.43;100.00;95892.13;1040331;28;20022;-68
2021/09/14 03:07:20;;;;;;;14.53;12.70;;;;;;;15.43;100.00;95891.31;1040243;28;20025;-68
2021/09/14 03:07:50;;;;;;;16.30;12.40;;;;;;;15.45;100.00;95889.09;1039896;28;20025;-68
2021/09/14 03:08:21;;;;;;;14.57;12.60;;;;;;;15.40;100.00;95892.72;1035839;28;20092;-68
2021/09/14 03:08:51;;;;;;;15.37;12.50;;;;;;;15.43;100.00;95888.63;1035914;28;20018;-68
2021/09/14 03:09:22;;;;;;;14.50;12.43;;;;;;;15.45;100.00;95892.59;1035940;28;20025;-68
2021/09/14 03:09:52;;;;;;;13.80;12.20;;;;;;;15.45;100.00;95889.91;1039945;28;20399;-68
2021/09/14 03:10:22;;;;;;;16.97;12.80;;;;;;;15.45;100.00;95889.91;1043949;28;20021;-69
2021/09/14 03:10:53;;;;;;;13.17;11.77;;;;;;;15.47;100.00;95892.31;1044076;28;20025;-68
2021/09/14 03:11:23;;;;;;;14.60;11.43;;;;;;;15.47;100.00;95887.72;1040241;28;20080;-68
2021/09/14 03:11:54;;;;;;;15.03;12.50;;;;;;;15.46;100.00;95896.91;1040259;28;20080;-68
2021/09/14 03:12:25;;;;;;;15.37;12.30;;;;;;;15.46;100.00;95896.91;1040216;28;20371;-68
2021/09/14 03:12:55;;;;;;;14.95;12.10;;;;;;;15.45;100.00;95891.81;1044137;28;20033;-68
2021/09/14 03:13:27;;;;;;;14.10;12.03;;;;;;;15.44;100.00;95892.91;1044052;28;20041;-68
2021/09/14 03:13:58;;;;;;;13.48;11.98;;;;;;;15.42;100.00;95893.22;1039825;28;20376;-69
2021/09/14 03:14:28;;;;;;;14.10;11.40;;;;;;;15.45;100.00;95889.09;1039938;28;20036;-68
2021/09/14 03:14:59;;;;;;;12.50;10.93;;;;;;;15.46;100.00;95888.03;1040000;28;20327;-69
2021/09/14 03:15:29;;;;;;;14.50;11.47;;;;;;;15.48;100.00;95888.50;1040782;28;20036;-69
2021/09/14 03:15:59;;;;;;;14.90;12.40;;;;;;;15.47;100.00;95893.09;1044391;28;20029;-69
2021/09/14 03:16:30;;;;;;;14.03;12.23;;;;;;;15.45;100.00;95884.50;1044348;28;20064;-69
2021/09/14 03:17:01;;;;;;;13.33;11.70;;;;;;;15.46;100.00;95896.91;1044040;28;20025;-69
2021/09/14 03:17:31;;;;;;;15.03;12.43;;;;;;;15.49;100.00;95893.59;1044036;28;20563;-69
2021/09/14 03:18:02;;;;;;;13.80;11.70;;;;;;;15.51;100.00;95894.09;1039942;28;20477;-69
2021/09/14 03:18:32;;;;;;;13.57;11.23;;;;;;;15.52;100.00;95893.00;1039891;28;20564;-69
2021/09/14 03:19:03;;;;;;;13.77;11.73;;;;;;;15.53;100.00;95893.78;1039965;28;20032;-69
2021/09/14 03:19:34;;;;;;;12.93;10.93;;;;;;;15.52;100.00;95893.00;1035978;28;20022;-69
2021/09/14 03:20:05;;;;;;;14.03;11.87;;;;;;;15.52;100.00;95886.81;1039984;28;20017;-69